createdAt,value
2018-03-29T00:00:00.425Z,4.08
2018-03-29T00:01:00.409Z,4.09
2018-03-29T00:02:00.396Z,4.16
2018-03-29T00:03:00.386Z,4.22
2018-03-29T00:04:00.395Z,4.18
2018-03-29T00:05:00.117Z,4.27
2018-03-29T00:06:00.342Z,4.26
2018-03-29T00:07:00.349Z,4.26
2018-03-29T00:08:00.322Z,4.29
2018-03-29T00:09:00.314Z,4.34
2018-03-29T00:10:00.060Z,4.27
2018-03-29T00:10:59.769Z,4.27
2018-03-29T00:12:00.265Z,4.23
2018-03-29T00:12:59.997Z,4.26
2018-03-29T00:14:00.232Z,4.33
2018-03-29T00:14:59.973Z,4.26
2018-03-29T00:15:59.702Z,4.27
2018-03-29T00:16:59.942Z,4.26
2018-03-29T00:17:59.934Z,4.27
2018-03-29T00:18:59.918Z,4.3
2018-03-29T00:19:59.913Z,4.27
2018-03-29T00:20:59.905Z,4.29
2018-03-29T00:21:59.880Z,4.33
2018-03-29T00:22:59.865Z,4.32
2018-03-29T00:23:59.848Z,4.32
2018-03-29T00:24:59.835Z,4.34
2018-03-29T00:25:59.823Z,4.37
2018-03-29T00:26:59.810Z,4.4
2018-03-29T00:27:59.796Z,4.44
2018-03-29T00:29:00.043Z,4.36
2018-03-29T00:29:59.769Z,4.41
2018-03-29T00:30:59.762Z,4.4
2018-03-29T00:31:59.744Z,4.32
2018-03-29T00:32:59.987Z,4.44
2018-03-29T00:33:59.975Z,4.4
2018-03-29T00:34:59.721Z,4.37
2018-03-29T00:35:59.943Z,4.34
2018-03-29T00:36:59.686Z,4.34
2018-03-29T00:37:59.924Z,4.33
2018-03-29T00:38:59.919Z,4.36
2018-03-29T00:39:59.917Z,4.37
2018-03-29T00:40:59.630Z,4.37
2018-03-29T00:41:59.874Z,4.4
2018-03-29T00:42:59.871Z,4.37
2018-03-29T00:43:59.838Z,4.45
2018-03-29T00:44:59.323Z,4.47
2018-03-29T00:45:59.811Z,4.5
2018-03-29T00:46:59.803Z,4.54
2018-03-29T00:47:59.543Z,4.5
2018-03-29T00:48:59.776Z,4.41
2018-03-29T00:49:59.775Z,4.42
2018-03-29T00:50:59.745Z,4.34
2018-03-29T00:51:59.788Z,4.37
2018-03-29T00:52:59.740Z,4.37
2018-03-29T00:53:59.705Z,4.47
2018-03-29T00:54:59.693Z,4.36
2018-03-29T00:55:59.426Z,4.45
2018-03-29T00:56:59.417Z,4.47
2018-03-29T00:57:59.657Z,4.51
2018-03-29T00:58:59.387Z,4.5
2018-03-29T00:59:59.627Z,4.5
2018-03-29T01:00:59.620Z,4.5
2018-03-29T01:01:59.352Z,4.54
2018-03-29T01:02:59.334Z,4.54
2018-03-29T01:03:59.573Z,4.47
2018-03-29T01:04:59.569Z,4.48
2018-03-29T01:05:59.549Z,4.45
2018-03-29T01:06:59.555Z,4.45
2018-03-29T01:07:59.283Z,4.36
2018-03-29T01:08:59.516Z,4.37
2018-03-29T01:09:59.500Z,4.44
2018-03-29T01:10:59.486Z,4.44
2018-03-29T01:11:59.277Z,4.37
2018-03-29T01:12:59.210Z,4.37
2018-03-29T01:13:59.447Z,4.48
2018-03-29T01:14:59.432Z,4.33
2018-03-29T01:15:59.417Z,4.36
2018-03-29T01:16:59.151Z,4.47
2018-03-29T01:17:59.390Z,4.36
2018-03-29T01:18:59.380Z,4.45
2018-03-29T01:19:59.362Z,4.51
2018-03-29T01:20:59.352Z,4.48
2018-03-29T01:21:59.342Z,4.5
2018-03-29T01:22:59.069Z,4.5
2018-03-29T01:23:59.319Z,4.5
2018-03-29T01:24:59.050Z,4.5
2018-03-29T01:25:59.037Z,4.54
2018-03-29T01:26:59.303Z,4.51
2018-03-29T01:27:59.262Z,4.58
2018-03-29T01:28:59.252Z,4.58
2018-03-29T01:29:59.234Z,4.55
2018-03-29T01:30:59.218Z,4.65
2018-03-29T01:31:58.953Z,4.55
2018-03-29T01:32:58.938Z,4.63
2018-03-29T01:33:59.180Z,4.6
2018-03-29T01:34:59.175Z,4.65
2018-03-29T01:35:58.903Z,4.65
2018-03-29T01:36:58.633Z,4.6
2018-03-29T01:37:59.126Z,4.62
2018-03-29T01:38:59.124Z,4.69
2018-03-29T01:39:59.098Z,4.7
2018-03-29T01:40:58.833Z,4.7
2018-03-29T01:41:58.833Z,4.69
2018-03-29T01:42:59.072Z,4.59
2018-03-29T01:43:59.048Z,4.65
2018-03-29T01:44:58.785Z,4.66
2018-03-29T01:45:59.019Z,4.67
2018-03-29T01:46:59.006Z,4.69
2018-03-29T01:47:58.994Z,4.67
2018-03-29T01:48:58.985Z,4.67
2018-03-29T01:49:58.718Z,4.69
2018-03-29T01:50:58.955Z,4.77
2018-03-29T01:51:58.942Z,4.67
2018-03-29T01:52:58.936Z,4.69
2018-03-29T01:53:58.669Z,4.73
2018-03-29T01:54:58.964Z,4.77
2018-03-29T01:55:58.911Z,4.85
2018-03-29T01:56:58.879Z,4.8
2018-03-29T01:57:58.873Z,4.84
2018-03-29T01:58:58.602Z,4.78
2018-03-29T01:59:58.850Z,4.91
2018-03-29T02:00:58.900Z,4.86
2018-03-29T02:01:58.813Z,4.89
2018-03-29T02:02:58.812Z,4.88
2018-03-29T02:03:58.795Z,4.89
2018-03-29T02:04:58.523Z,4.86
2018-03-29T02:05:58.509Z,4.89
2018-03-29T02:06:58.750Z,4.91
2018-03-29T02:07:58.739Z,4.99
2018-03-29T02:08:58.722Z,4.99
2018-03-29T02:09:58.714Z,4.99
2018-03-29T02:10:58.446Z,5.06
2018-03-29T02:11:58.686Z,5.09
2018-03-29T02:12:58.673Z,5.07
2018-03-29T02:13:58.663Z,5.12
2018-03-29T02:14:58.654Z,5.21
2018-03-29T02:15:58.634Z,5.3
2018-03-29T02:16:58.638Z,5.21
2018-03-29T02:17:58.613Z,5.24
2018-03-29T02:18:58.597Z,5.17
2018-03-29T02:19:58.586Z,5.28
2018-03-29T02:20:58.318Z,5.2
2018-03-29T02:21:58.555Z,5.24
2018-03-29T02:22:58.549Z,5.24
2018-03-29T02:23:58.532Z,5.33
2018-03-29T02:24:58.527Z,5.31
2018-03-29T02:25:58.518Z,5.28
2018-03-29T02:26:58.242Z,5.35
2018-03-29T02:27:58.233Z,5.36
2018-03-29T02:28:58.474Z,5.31
2018-03-29T02:29:58.707Z,5.38
2018-03-29T02:30:58.451Z,5.43
2018-03-29T02:31:58.448Z,5.45
2018-03-29T02:32:58.468Z,5.45
2018-03-29T02:33:58.176Z,5.43
2018-03-29T02:34:58.404Z,5.54
2018-03-29T02:35:58.139Z,5.39
2018-03-29T02:36:58.372Z,5.46
2018-03-29T02:37:58.362Z,5.4
2018-03-29T02:38:58.347Z,5.45
2018-03-29T02:39:58.343Z,5.43
2018-03-29T02:40:58.344Z,5.54
2018-03-29T02:41:58.319Z,5.42
2018-03-29T02:42:58.312Z,5.53
2018-03-29T02:43:58.284Z,5.54
2018-03-29T02:44:58.273Z,5.58
2018-03-29T02:45:58.262Z,5.58
2018-03-29T02:46:58.252Z,5.6
2018-03-29T02:47:58.234Z,5.57
2018-03-29T02:48:58.226Z,5.65
2018-03-29T02:49:57.960Z,5.57
2018-03-29T02:50:58.212Z,5.67
2018-03-29T02:51:58.194Z,5.76
2018-03-29T02:52:58.181Z,5.81
2018-03-29T02:53:58.163Z,5.83
2018-03-29T02:54:58.149Z,5.86
2018-03-29T02:55:58.137Z,5.91
2018-03-29T02:56:58.141Z,5.93
2018-03-29T02:57:57.877Z,5.97
2018-03-29T02:58:58.099Z,6.03
2018-03-29T02:59:58.094Z,6
2018-03-29T03:00:58.089Z,6.12
2018-03-29T03:01:58.071Z,6.11
2018-03-29T03:02:58.055Z,6.17
2018-03-29T03:03:58.069Z,6.18
2018-03-29T03:04:57.780Z,6.22
2018-03-29T03:05:58.016Z,6.36
2018-03-29T03:06:58.010Z,6.36
2018-03-29T03:07:58.006Z,6.36
2018-03-29T03:08:57.994Z,6.34
2018-03-29T03:09:57.971Z,6.37
2018-03-29T03:10:57.963Z,6.4
2018-03-29T03:11:57.943Z,6.38
2018-03-29T03:12:57.933Z,6.43
2018-03-29T03:13:57.920Z,6.56
2018-03-29T03:14:57.915Z,6.48
2018-03-29T03:15:57.900Z,6.49
2018-03-29T03:16:57.941Z,6.54
2018-03-29T03:17:57.621Z,6.52
2018-03-29T03:18:57.609Z,6.54
2018-03-29T03:19:57.862Z,6.54
2018-03-29T03:20:57.844Z,6.54
2018-03-29T03:21:57.574Z,6.52
2018-03-29T03:22:57.562Z,6.56
2018-03-29T03:23:57.817Z,6.52
2018-03-29T03:24:57.799Z,6.61
2018-03-29T03:25:57.782Z,6.61
2018-03-29T03:26:57.766Z,6.58
2018-03-29T03:27:57.967Z,6.62
2018-03-29T03:28:57.752Z,6.59
2018-03-29T03:29:57.792Z,6.62
2018-03-29T03:30:57.219Z,6.66
2018-03-29T03:31:57.715Z,6.56
2018-03-29T03:32:57.699Z,6.66
2018-03-29T03:33:57.688Z,6.69
2018-03-29T03:34:57.685Z,6.67
2018-03-29T03:35:57.690Z,6.62
2018-03-29T03:36:57.653Z,6.66
2018-03-29T03:37:57.644Z,6.71
2018-03-29T03:38:57.697Z,6.67
2018-03-29T03:39:57.622Z,6.69
2018-03-29T03:40:57.356Z,6.69
2018-03-29T03:41:57.596Z,6.76
2018-03-29T03:42:57.593Z,6.76
2018-03-29T03:43:57.578Z,6.67
2018-03-29T03:44:57.308Z,6.85
2018-03-29T03:45:57.549Z,6.73
2018-03-29T03:46:57.549Z,6.71
2018-03-29T03:47:57.529Z,6.74
2018-03-29T03:48:57.528Z,6.85
2018-03-29T03:49:57.513Z,6.84
2018-03-29T03:50:57.497Z,6.88
2018-03-29T03:51:57.482Z,6.88
2018-03-29T03:52:57.472Z,6.87
2018-03-29T03:53:57.206Z,6.81
2018-03-29T03:54:57.448Z,6.87
2018-03-29T03:55:57.439Z,6.92
2018-03-29T03:56:57.425Z,6.88
2018-03-29T03:57:57.164Z,6.87
2018-03-29T03:58:57.414Z,6.91
2018-03-29T03:59:57.392Z,6.91
2018-03-29T04:00:57.391Z,6.8
2018-03-29T04:01:57.117Z,6.88
2018-03-29T04:02:57.133Z,6.81
2018-03-29T04:03:57.094Z,6.84
2018-03-29T04:04:57.082Z,6.88
2018-03-29T04:05:56.819Z,6.81
2018-03-29T04:06:57.331Z,6.84
2018-03-29T04:07:57.300Z,6.81
2018-03-29T04:08:57.292Z,6.77
2018-03-29T04:09:57.281Z,6.76
2018-03-29T04:10:57.265Z,6.73
2018-03-29T04:11:57.259Z,6.66
2018-03-29T04:12:57.244Z,6.73
2018-03-29T04:13:56.981Z,6.71
2018-03-29T04:14:57.225Z,6.74
2018-03-29T04:15:57.209Z,6.69
2018-03-29T04:16:56.947Z,6.71
2018-03-29T04:17:57.195Z,6.67
2018-03-29T04:18:57.188Z,6.67
2018-03-29T04:19:57.199Z,6.71
2018-03-29T04:20:57.159Z,6.71
2018-03-29T04:21:56.646Z,6.71
2018-03-29T04:22:56.880Z,6.67
2018-03-29T04:23:57.120Z,6.67
2018-03-29T04:24:57.110Z,6.66
2018-03-29T04:25:57.097Z,6.67
2018-03-29T04:26:57.086Z,6.61
2018-03-29T04:27:56.822Z,6.69
2018-03-29T04:28:57.069Z,6.66
2018-03-29T04:29:57.050Z,6.69
2018-03-29T04:30:56.535Z,6.64
2018-03-29T04:31:57.030Z,6.69
2018-03-29T04:32:56.819Z,6.59
2018-03-29T04:33:56.753Z,6.66
2018-03-29T04:34:56.742Z,6.64
2018-03-29T04:35:56.481Z,6.74
2018-03-29T04:36:56.975Z,6.62
2018-03-29T04:37:56.981Z,6.66
2018-03-29T04:38:56.956Z,6.64
2018-03-29T04:39:56.687Z,6.69
2018-03-29T04:40:56.928Z,6.67
2018-03-29T04:41:56.914Z,6.67
2018-03-29T04:42:56.651Z,6.7
2018-03-29T04:43:56.639Z,6.7
2018-03-29T04:44:56.375Z,6.69
2018-03-29T04:45:56.881Z,6.76
2018-03-29T04:46:56.613Z,6.73
2018-03-29T04:47:56.854Z,6.71
2018-03-29T04:48:56.835Z,6.7
2018-03-29T04:49:56.843Z,6.71
2018-03-29T04:50:56.818Z,6.71
2018-03-29T04:51:56.800Z,6.73
2018-03-29T04:52:56.789Z,6.64
2018-03-29T04:53:56.566Z,6.64
2018-03-29T04:54:56.513Z,6.61
2018-03-29T04:55:56.760Z,6.61
2018-03-29T04:56:56.778Z,6.59
2018-03-29T04:57:56.482Z,6.56
2018-03-29T04:58:56.745Z,6.58
2018-03-29T04:59:56.759Z,6.54
2018-03-29T05:00:56.710Z,6.56
2018-03-29T05:01:56.438Z,6.59
2018-03-29T05:02:56.426Z,6.58
2018-03-29T05:03:56.661Z,6.56
2018-03-29T05:04:56.405Z,6.54
2018-03-29T05:05:56.644Z,6.48
2018-03-29T05:06:56.377Z,6.52
2018-03-29T05:07:56.617Z,6.46
2018-03-29T05:08:56.608Z,6.49
2018-03-29T05:09:56.598Z,6.49
2018-03-29T05:10:56.599Z,6.41
2018-03-29T05:11:56.585Z,6.46
2018-03-29T05:12:56.563Z,6.4
2018-03-29T05:13:56.549Z,6.33
2018-03-29T05:14:56.550Z,6.34
2018-03-29T05:15:56.541Z,6.38
2018-03-29T05:16:56.521Z,6.38
2018-03-29T05:17:56.512Z,6.4
2018-03-29T05:18:56.239Z,6.38
2018-03-29T05:19:56.237Z,6.43
2018-03-29T05:20:56.470Z,6.49
2018-03-29T05:21:56.206Z,6.49
2018-03-29T05:22:56.193Z,6.54
2018-03-29T05:23:56.446Z,6.52
2018-03-29T05:24:56.173Z,6.51
2018-03-29T05:25:56.411Z,6.49
2018-03-29T05:26:56.407Z,6.51
2018-03-29T05:27:56.392Z,6.51
2018-03-29T05:28:56.376Z,6.43
2018-03-29T05:29:56.134Z,6.48
2018-03-29T05:30:56.353Z,6.43
2018-03-29T05:31:56.348Z,6.36
2018-03-29T05:32:56.078Z,6.34
2018-03-29T05:33:56.326Z,6.38
2018-03-29T05:34:56.055Z,6.36
2018-03-29T05:35:56.299Z,6.37
2018-03-29T05:36:56.299Z,6.41
2018-03-29T05:37:56.278Z,6.38
2018-03-29T05:38:56.270Z,6.41
2018-03-29T05:39:56.026Z,6.34
2018-03-29T05:40:56.346Z,6.36
2018-03-29T05:41:56.230Z,6.38
2018-03-29T05:42:56.229Z,6.37
2018-03-29T05:43:56.209Z,6.31
2018-03-29T05:44:55.686Z,6.36
2018-03-29T05:45:56.184Z,6.38
2018-03-29T05:46:56.326Z,6.36
2018-03-29T05:47:56.160Z,6.36
2018-03-29T05:48:56.143Z,6.34
2018-03-29T05:49:56.134Z,6.41
2018-03-29T05:50:56.125Z,6.36
2018-03-29T05:51:56.136Z,6.38
2018-03-29T05:52:56.105Z,6.36
2018-03-29T05:53:56.090Z,6.37
2018-03-29T05:54:55.823Z,6.33
2018-03-29T05:55:55.813Z,6.4
2018-03-29T05:56:56.053Z,6.48
2018-03-29T05:57:56.057Z,6.55
2018-03-29T05:58:56.037Z,6.48
2018-03-29T05:59:56.058Z,6.44
2018-03-29T06:00:56.018Z,6.51
2018-03-29T06:01:55.750Z,6.48
2018-03-29T06:02:55.733Z,6.56
2018-03-29T06:03:55.972Z,6.52
2018-03-29T06:04:55.965Z,6.55
2018-03-29T06:05:55.962Z,6.61
2018-03-29T06:06:55.944Z,6.66
2018-03-29T06:07:55.950Z,6.69
2018-03-29T06:08:55.938Z,6.7
2018-03-29T06:09:55.907Z,6.74
2018-03-29T06:10:55.892Z,6.79
2018-03-29T06:11:55.887Z,6.71
2018-03-29T06:12:55.869Z,6.74
2018-03-29T06:13:55.858Z,6.79
2018-03-29T06:14:55.848Z,6.77
2018-03-29T06:15:55.587Z,6.85
2018-03-29T06:16:55.833Z,6.85
2018-03-29T06:17:55.879Z,6.88
2018-03-29T06:18:55.811Z,6.87
2018-03-29T06:19:55.583Z,6.95
2018-03-29T06:20:55.788Z,6.95
2018-03-29T06:21:55.770Z,6.98
2018-03-29T06:22:55.763Z,7.09
2018-03-29T06:23:55.747Z,7.1
2018-03-29T06:24:55.734Z,7.09
2018-03-29T06:25:55.729Z,7.25
2018-03-29T06:26:55.723Z,7.13
2018-03-29T06:27:55.456Z,7.23
2018-03-29T06:28:55.690Z,7.3
2018-03-29T06:29:55.681Z,7.31
2018-03-29T06:30:55.421Z,7.28
2018-03-29T06:31:55.658Z,7.34
2018-03-29T06:32:55.655Z,7.32
2018-03-29T06:33:55.647Z,7.4
2018-03-29T06:34:55.625Z,7.39
2018-03-29T06:35:55.616Z,7.37
2018-03-29T06:36:55.606Z,7.48
2018-03-29T06:37:55.593Z,7.4
2018-03-29T06:38:55.583Z,7.53
2018-03-29T06:39:55.329Z,7.53
2018-03-29T06:40:55.567Z,7.46
2018-03-29T06:41:55.549Z,7.5
2018-03-29T06:42:55.538Z,7.52
2018-03-29T06:43:55.276Z,7.48
2018-03-29T06:44:55.546Z,7.57
2018-03-29T06:45:55.519Z,7.52
2018-03-29T06:46:55.261Z,7.5
2018-03-29T06:47:55.236Z,7.57
2018-03-29T06:48:55.476Z,7.6
2018-03-29T06:49:55.472Z,7.58
2018-03-29T06:50:55.204Z,7.61
2018-03-29T06:51:55.447Z,7.79
2018-03-29T06:52:55.445Z,7.69
2018-03-29T06:53:55.428Z,7.71
2018-03-29T06:54:55.424Z,7.83
2018-03-29T06:55:55.149Z,7.77
2018-03-29T06:56:55.146Z,7.71
2018-03-29T06:57:55.395Z,7.71
2018-03-29T06:58:55.374Z,7.77
2018-03-29T06:59:55.359Z,7.72
2018-03-29T07:00:55.462Z,7.64
2018-03-29T07:01:55.364Z,7.64
2018-03-29T07:02:55.353Z,7.69
2018-03-29T07:03:55.076Z,7.71
2018-03-29T07:04:55.056Z,7.69
2018-03-29T07:05:55.052Z,7.83
2018-03-29T07:06:55.291Z,7.77
2018-03-29T07:07:55.293Z,7.83
2018-03-29T07:08:55.279Z,7.89
2018-03-29T07:09:55.272Z,7.85
2018-03-29T07:10:55.261Z,7.92
2018-03-29T07:11:55.243Z,7.9
2018-03-29T07:12:55.230Z,7.97
2018-03-29T07:13:55.216Z,8.05
2018-03-29T07:14:55.229Z,8.07
2018-03-29T07:15:55.203Z,8.16
2018-03-29T07:16:55.203Z,8.15
2018-03-29T07:17:55.194Z,8.02
2018-03-29T07:18:55.176Z,8.01
2018-03-29T07:19:55.171Z,7.97
2018-03-29T07:20:55.146Z,7.98
2018-03-29T07:21:55.154Z,8.01
2018-03-29T07:22:55.175Z,8.02
2018-03-29T07:23:55.119Z,8.05
2018-03-29T07:24:55.159Z,8.08
2018-03-29T07:25:55.099Z,8.01
2018-03-29T07:26:55.108Z,8.01
2018-03-29T07:27:54.832Z,8.11
2018-03-29T07:28:55.079Z,8.02
2018-03-29T07:29:55.072Z,8.15
2018-03-29T07:30:55.046Z,8.12
2018-03-29T07:31:55.041Z,8.11
2018-03-29T07:32:54.798Z,8.04
2018-03-29T07:33:55.066Z,8.05
2018-03-29T07:34:54.778Z,8.1
2018-03-29T07:35:54.750Z,8.19
2018-03-29T07:36:54.986Z,8.12
2018-03-29T07:37:54.994Z,8.23
2018-03-29T07:38:54.739Z,8.26
2018-03-29T07:39:54.963Z,8.3
2018-03-29T07:40:54.452Z,8.37
2018-03-29T07:41:54.945Z,8.37
2018-03-29T07:42:54.954Z,8.37
2018-03-29T07:43:54.940Z,8.38
2018-03-29T07:44:54.670Z,8.41
2018-03-29T07:45:54.928Z,8.5
2018-03-29T07:46:54.905Z,8.5
2018-03-29T07:47:54.890Z,8.47
2018-03-29T07:48:54.872Z,8.48
2018-03-29T07:49:54.869Z,8.48
2018-03-29T07:50:54.851Z,8.47
2018-03-29T07:51:54.862Z,8.48
2018-03-29T07:52:54.879Z,8.52
2018-03-29T07:53:54.822Z,8.47
2018-03-29T07:54:54.577Z,8.52
2018-03-29T07:55:55.251Z,8.5
2018-03-29T07:56:54.796Z,8.55
2018-03-29T07:57:54.996Z,8.56
2018-03-29T07:58:54.776Z,8.63
2018-03-29T07:59:54.765Z,8.58
2018-03-29T08:00:54.809Z,8.66
2018-03-29T08:01:54.505Z,8.59
2018-03-29T08:02:54.498Z,8.65
2018-03-29T08:03:54.736Z,8.65
2018-03-29T08:04:54.720Z,8.7
2018-03-29T08:05:54.717Z,8.76
2018-03-29T08:06:54.727Z,8.76
2018-03-29T08:07:54.440Z,8.79
2018-03-29T08:08:54.680Z,8.86
2018-03-29T08:09:54.730Z,8.84
2018-03-29T08:10:54.715Z,8.92
2018-03-29T08:11:54.645Z,8.95
2018-03-29T08:12:54.637Z,9.02
2018-03-29T08:13:54.770Z,9.1
2018-03-29T08:14:54.667Z,9.26
2018-03-29T08:15:54.608Z,9.26
2018-03-29T08:16:54.356Z,9.35
2018-03-29T08:17:54.337Z,9.43
2018-03-29T08:18:54.625Z,9.42
2018-03-29T08:19:54.573Z,9.43
2018-03-29T08:20:54.322Z,9.47
2018-03-29T08:21:54.305Z,9.51
2018-03-29T08:22:54.551Z,9.53
2018-03-29T08:23:54.284Z,9.53
2018-03-29T08:24:54.532Z,9.48
2018-03-29T08:25:54.317Z,9.54
2018-03-29T08:26:54.294Z,9.47
2018-03-29T08:27:54.249Z,9.5
2018-03-29T08:28:54.507Z,9.46
2018-03-29T08:29:54.534Z,9.58
2018-03-29T08:30:54.494Z,9.57
2018-03-29T08:31:54.489Z,9.46
2018-03-29T08:32:54.474Z,9.53
2018-03-29T08:33:54.461Z,9.48
2018-03-29T08:34:54.214Z,9.48
2018-03-29T08:35:54.200Z,9.48
2018-03-29T08:36:54.427Z,9.47
2018-03-29T08:37:54.425Z,9.46
2018-03-29T08:38:54.409Z,9.48
2018-03-29T08:39:54.398Z,9.46
2018-03-29T08:40:54.397Z,9.56
2018-03-29T08:41:54.408Z,9.56
2018-03-29T08:42:54.491Z,9.5
2018-03-29T08:43:54.110Z,9.53
2018-03-29T08:44:54.156Z,9.5
2018-03-29T08:45:54.602Z,9.5
2018-03-29T08:46:54.353Z,9.46
2018-03-29T08:47:54.099Z,9.61
2018-03-29T08:48:54.355Z,9.74
2018-03-29T08:49:54.360Z,9.68
2018-03-29T08:50:54.561Z,9.76
2018-03-29T08:51:54.314Z,9.94
2018-03-29T08:52:54.033Z,10.02
2018-03-29T08:53:54.288Z,10.08
2018-03-29T08:54:54.272Z,10.23
2018-03-29T08:55:54.268Z,10.2
2018-03-29T08:56:54.275Z,10.11
2018-03-29T08:57:54.263Z,10.14
2018-03-29T08:58:54.249Z,10.07
2018-03-29T08:59:54.233Z,10.09
2018-03-29T09:00:53.996Z,10.04
2018-03-29T09:01:53.958Z,10.09
2018-03-29T09:02:53.950Z,10.04
2018-03-29T09:03:54.198Z,10.07
2018-03-29T09:04:54.231Z,10.11
2018-03-29T09:05:53.924Z,10.07
2018-03-29T09:06:54.173Z,10.12
2018-03-29T09:07:54.162Z,10.12
2018-03-29T09:08:54.285Z,10.09
2018-03-29T09:09:54.161Z,9.96
2018-03-29T09:10:53.936Z,9.91
2018-03-29T09:11:54.151Z,9.91
2018-03-29T09:12:53.873Z,9.99
2018-03-29T09:13:54.131Z,9.96
2018-03-29T09:14:54.110Z,10.07
2018-03-29T09:15:54.124Z,10.12
2018-03-29T09:16:54.092Z,10.12
2018-03-29T09:17:54.092Z,10.01
2018-03-29T09:18:54.094Z,10.07
2018-03-29T09:19:54.079Z,10.11
2018-03-29T09:20:53.812Z,10.22
2018-03-29T09:21:53.809Z,10.25
2018-03-29T09:22:54.038Z,10.33
2018-03-29T09:23:53.782Z,10.4
2018-03-29T09:24:54.024Z,10.59
2018-03-29T09:25:53.772Z,10.63
2018-03-29T09:26:54.042Z,10.74
2018-03-29T09:27:54.012Z,10.94
2018-03-29T09:28:54.020Z,11.07
2018-03-29T09:29:53.997Z,11.07
2018-03-29T09:30:53.989Z,11.19
2018-03-29T09:31:53.984Z,11.21
2018-03-29T09:32:53.980Z,11.46
2018-03-29T09:33:53.963Z,11.44
2018-03-29T09:34:53.955Z,11.4
2018-03-29T09:35:53.986Z,11.54
2018-03-29T09:36:53.941Z,11.58
2018-03-29T09:37:53.930Z,11.55
2018-03-29T09:38:53.960Z,11.52
2018-03-29T09:39:53.939Z,11.55
2018-03-29T09:40:53.922Z,11.54
2018-03-29T09:41:53.938Z,11.42
2018-03-29T09:42:54.194Z,11.49
2018-03-29T09:43:53.899Z,11.37
2018-03-29T09:44:53.388Z,11.32
2018-03-29T09:45:53.880Z,11.33
2018-03-29T09:46:53.623Z,11.4
2018-03-29T09:47:53.608Z,11.39
2018-03-29T09:48:53.852Z,11.42
2018-03-29T09:49:53.869Z,11.44
2018-03-29T09:50:53.998Z,11.55
2018-03-29T09:51:53.598Z,11.51
2018-03-29T09:52:53.828Z,11.51
2018-03-29T09:53:53.848Z,11.57
2018-03-29T09:54:53.814Z,11.49
2018-03-29T09:55:53.569Z,11.51
2018-03-29T09:56:53.576Z,11.58
2018-03-29T09:57:53.535Z,11.57
2018-03-29T09:58:53.529Z,11.61
2018-03-29T09:59:53.807Z,11.51
2018-03-29T10:00:53.521Z,11.36
2018-03-29T10:01:53.766Z,11.37
2018-03-29T10:02:53.763Z,11.37
2018-03-29T10:03:53.754Z,11.46
2018-03-29T10:04:53.759Z,11.46
2018-03-29T10:05:53.745Z,11.58
2018-03-29T10:06:53.752Z,11.67
2018-03-29T10:07:53.216Z,11.69
2018-03-29T10:08:53.718Z,11.83
2018-03-29T10:09:53.710Z,11.88
2018-03-29T10:10:53.454Z,11.88
2018-03-29T10:11:53.718Z,11.99
2018-03-29T10:12:53.702Z,11.88
2018-03-29T10:13:53.692Z,11.91
2018-03-29T10:14:53.422Z,11.86
2018-03-29T10:15:53.426Z,11.96
2018-03-29T10:16:53.682Z,12.01
2018-03-29T10:17:53.402Z,12.05
2018-03-29T10:18:53.800Z,12.07
2018-03-29T10:19:53.681Z,12.2
2018-03-29T10:20:53.397Z,12.24
2018-03-29T10:21:53.666Z,12.42
2018-03-29T10:22:53.645Z,12.46
2018-03-29T10:23:53.404Z,12.42
2018-03-29T10:24:53.402Z,12.34
2018-03-29T10:25:53.641Z,12.28
2018-03-29T10:26:53.912Z,12.37
2018-03-29T10:27:53.596Z,12.45
2018-03-29T10:28:53.587Z,12.41
2018-03-29T10:29:53.601Z,12.53
2018-03-29T10:30:53.322Z,12.64
2018-03-29T10:31:53.572Z,12.7
2018-03-29T10:32:53.336Z,12.77
2018-03-29T10:33:53.603Z,12.82
2018-03-29T10:34:53.589Z,12.87
2018-03-29T10:35:53.658Z,12.9
2018-03-29T10:36:53.549Z,13
2018-03-29T10:37:53.284Z,13
2018-03-29T10:38:53.550Z,12.97
2018-03-29T10:39:53.552Z,12.96
2018-03-29T10:40:53.264Z,13.01
2018-03-29T10:41:53.542Z,13.04
2018-03-29T10:42:53.551Z,12.96
2018-03-29T10:43:53.254Z,12.95
2018-03-29T10:44:53.246Z,12.96
2018-03-29T10:45:53.576Z,12.93
2018-03-29T10:46:53.474Z,12.85
2018-03-29T10:47:53.474Z,12.78
2018-03-29T10:48:53.226Z,12.64
2018-03-29T10:49:53.205Z,12.6
2018-03-29T10:50:53.454Z,12.53
2018-03-29T10:51:53.455Z,12.47
2018-03-29T10:52:53.452Z,12.49
2018-03-29T10:53:53.192Z,12.34
2018-03-29T10:54:53.440Z,12.32
2018-03-29T10:55:52.918Z,12.32
2018-03-29T10:56:53.420Z,12.24
2018-03-29T10:57:53.428Z,12.14
2018-03-29T10:58:53.405Z,12.05
2018-03-29T10:59:53.146Z,12.02
2018-03-29T11:00:53.398Z,11.99
2018-03-29T11:01:53.137Z,11.83
2018-03-29T11:02:53.392Z,11.85
2018-03-29T11:03:53.382Z,11.7
2018-03-29T11:04:53.388Z,11.65
2018-03-29T11:05:53.111Z,11.55
2018-03-29T11:06:53.362Z,11.46
2018-03-29T11:07:53.346Z,11.47
2018-03-29T11:08:53.341Z,11.51
2018-03-29T11:09:53.335Z,11.37
2018-03-29T11:10:53.342Z,11.4
2018-03-29T11:11:53.121Z,11.43
2018-03-29T11:12:53.316Z,11.25
2018-03-29T11:13:53.327Z,11.28
2018-03-29T11:14:53.049Z,11.27
2018-03-29T11:15:53.069Z,11.27
2018-03-29T11:16:53.294Z,11.28
2018-03-29T11:17:53.047Z,11.27
2018-03-29T11:18:53.014Z,11.32
2018-03-29T11:19:53.015Z,11.4
2018-03-29T11:20:52.997Z,11.47
2018-03-29T11:21:53.264Z,11.55
2018-03-29T11:22:53.244Z,11.78
2018-03-29T11:23:53.231Z,11.86
2018-03-29T11:24:53.241Z,12.01
2018-03-29T11:25:52.968Z,12.05
2018-03-29T11:26:53.222Z,12.2
2018-03-29T11:27:53.205Z,12.31
2018-03-29T11:28:53.207Z,12.38
2018-03-29T11:29:53.240Z,12.45
2018-03-29T11:30:52.971Z,12.5
2018-03-29T11:31:53.183Z,12.56
2018-03-29T11:32:52.931Z,12.65
2018-03-29T11:33:52.658Z,12.7
2018-03-29T11:34:52.917Z,12.74
2018-03-29T11:35:52.926Z,12.86
2018-03-29T11:36:53.215Z,12.86
2018-03-29T11:37:53.150Z,13.03
2018-03-29T11:38:53.201Z,13.04
2018-03-29T11:39:53.133Z,13.17
2018-03-29T11:40:52.886Z,13.1
2018-03-29T11:41:53.117Z,13.08
2018-03-29T11:42:53.115Z,13.03
2018-03-29T11:43:52.876Z,13.07
2018-03-29T11:44:52.847Z,13.07
2018-03-29T11:45:53.121Z,13.19
2018-03-29T11:46:53.096Z,13.22
2018-03-29T11:47:53.095Z,13.23
2018-03-29T11:48:53.093Z,13.46
2018-03-29T11:49:53.078Z,13.55
2018-03-29T11:50:53.183Z,13.62
2018-03-29T11:51:53.128Z,13.75
2018-03-29T11:52:53.110Z,13.78
2018-03-29T11:53:53.059Z,13.87
2018-03-29T11:54:52.800Z,13.84
2018-03-29T11:55:53.044Z,13.95
2018-03-29T11:56:53.037Z,13.89
2018-03-29T11:57:53.043Z,13.89
2018-03-29T11:58:53.034Z,13.88
2018-03-29T11:59:52.520Z,13.97
2018-03-29T12:00:53.025Z,14.02
2018-03-29T12:01:53.423Z,14.02
2018-03-29T12:02:53.438Z,13.89
2018-03-29T12:03:52.761Z,13.91
2018-03-29T12:04:53.015Z,13.89
2018-03-29T12:05:53.021Z,14.06
2018-03-29T12:06:52.993Z,14.15
2018-03-29T12:07:53.018Z,14.02
2018-03-29T12:08:53.012Z,14.09
2018-03-29T12:09:52.988Z,14.03
2018-03-29T12:10:52.736Z,13.96
2018-03-29T12:11:52.720Z,13.87
2018-03-29T12:12:52.984Z,14
2018-03-29T12:13:52.970Z,13.85
2018-03-29T12:14:52.960Z,13.87
2018-03-29T12:15:52.700Z,13.77
2018-03-29T12:16:52.983Z,13.67
2018-03-29T12:17:52.960Z,13.57
2018-03-29T12:18:52.937Z,13.51
2018-03-29T12:19:52.707Z,13.44
2018-03-29T12:20:52.998Z,13.38
2018-03-29T12:21:52.961Z,13.44
2018-03-29T12:22:52.957Z,13.44
2018-03-29T12:23:52.661Z,13.55
2018-03-29T12:24:52.934Z,13.55
2018-03-29T12:25:52.681Z,13.73
2018-03-29T12:26:52.722Z,13.87
2018-03-29T12:27:52.904Z,13.92
2018-03-29T12:28:52.922Z,13.85
2018-03-29T12:29:52.991Z,14
2018-03-29T12:30:52.929Z,13.85
2018-03-29T12:31:52.882Z,13.89
2018-03-29T12:32:52.663Z,13.85
2018-03-29T12:33:52.930Z,13.77
2018-03-29T12:34:52.876Z,13.75
2018-03-29T12:35:52.857Z,13.62
2018-03-29T12:36:52.921Z,13.54
2018-03-29T12:37:53.110Z,13.52
2018-03-29T12:38:52.837Z,13.41
2018-03-29T12:39:52.836Z,13.36
2018-03-29T12:40:52.849Z,13.42
2018-03-29T12:41:52.837Z,13.45
2018-03-29T12:42:52.837Z,13.39
2018-03-29T12:43:52.871Z,13.52
2018-03-29T12:44:52.607Z,13.52
2018-03-29T12:45:52.816Z,13.52
2018-03-29T12:46:52.753Z,13.39
2018-03-29T12:47:52.803Z,13.3
2018-03-29T12:48:52.791Z,13.32
2018-03-29T12:49:52.784Z,13.36
2018-03-29T12:50:52.811Z,13.23
2018-03-29T12:51:52.796Z,13.19
2018-03-29T12:52:52.261Z,13.19
2018-03-29T12:53:52.531Z,13.19
2018-03-29T12:54:52.505Z,13.22
2018-03-29T12:55:52.876Z,13.17
2018-03-29T12:56:52.745Z,13.26
2018-03-29T12:57:52.490Z,13.3
2018-03-29T12:58:52.756Z,13.32
2018-03-29T12:59:52.483Z,13.38
2018-03-29T13:00:52.733Z,13.42
2018-03-29T13:01:52.735Z,13.55
2018-03-29T13:02:52.713Z,13.52
2018-03-29T13:03:52.712Z,13.51
2018-03-29T13:04:52.710Z,13.38
2018-03-29T13:05:52.455Z,13.42
2018-03-29T13:06:52.693Z,13.44
2018-03-29T13:07:52.698Z,13.41
2018-03-29T13:08:53.044Z,13.57
2018-03-29T13:09:52.685Z,13.54
2018-03-29T13:10:52.677Z,13.57
2018-03-29T13:11:52.684Z,13.57